Time;durP1;ratioP1;P1;durP2;ratioP2;P2;SDS_P1;SDS_P2;PMS_P1;PMS_P2;Temp;Humidity;BMP_temperature;BMP_pressure;BME280_temperature;BME280_humidity;BME280_pressure;Samples;Min_cycle;Max_cycle;Signal;HPM_P1;HPM_P2
2021/01/23 00:00:35;;;;;;;27.50;17.20;;;;;;;4.55;84.11;101034.23;1747183;80;21614;-64
2021/01/23 00:03:05;;;;;;;21.97;16.55;;;;;;;4.55;83.97;101032.93;1747160;80;21179;-67
2021/01/23 00:05:35;;;;;;;22.37;16.48;;;;;;;4.57;83.85;101028.09;1747073;80;21471;-65
2021/01/23 00:08:05;;;;;;;21.50;13.18;;;;;;;4.59;83.74;101029.36;1747153;80;21006;-66
2021/01/23 00:10:35;;;;;;;23.60;14.98;;;;;;;4.60;83.75;101019.36;1747113;80;21599;-65
2021/01/23 00:13:04;;;;;;;22.98;16.05;;;;;;;4.62;83.74;101026.66;1747170;80;20954;-66
2021/01/23 00:15:33;;;;;;;22.17;15.03;;;;;;;4.65;83.74;101029.19;1746969;80;21157;-65
2021/01/23 00:18:02;;;;;;;23.62;14.75;;;;;;;4.65;83.64;101021.85;1747199;80;21026;-65
2021/01/23 00:20:32;;;;;;;22.55;14.10;;;;;;;4.65;83.53;101012.77;1747162;80;20990;-66
2021/01/23 00:23:06;;;;;;;22.45;16.20;;;;;;;4.67;83.43;101009.22;1747074;80;21034;-65
2021/01/23 00:25:35;;;;;;;18.73;12.82;;;;;;;4.68;83.31;101007.47;1747234;80;21404;-65
2021/01/23 00:28:05;;;;;;;15.98;11.83;;;;;;;4.67;83.33;101006.63;1747066;80;21200;-68
2021/01/23 00:30:34;;;;;;;22.27;13.90;;;;;;;4.68;83.38;101004.41;1746815;79;21021;-66
2021/01/23 00:33:05;;;;;;;23.10;14.73;;;;;;;4.69;83.44;100998.77;1746954;80;21041;-65
2021/01/23 00:35:35;;;;;;;24.63;13.45;;;;;;;4.70;83.45;100995.28;1747106;80;21001;-65
2021/01/23 00:38:04;;;;;;;26.30;14.38;;;;;;;4.70;83.41;100988.79;1747086;80;21030;-65
2021/01/23 00:40:34;;;;;;;18.05;13.05;;;;;;;4.71;83.39;100982.26;1747219;80;22008;-65
2021/01/23 00:43:03;;;;;;;21.35;14.75;;;;;;;4.70;83.36;100981.84;1747036;80;21491;-64
2021/01/23 00:45:32;;;;;;;23.80;15.18;;;;;;;4.70;83.38;100984.89;1747164;80;20955;-66
2021/01/23 00:48:12;;;;;;;27.37;14.40;;;;;;;4.69;83.42;100987.07;1746939;80;21040;-65
2021/01/23 00:50:41;;;;;;;23.87;15.88;;;;;;;4.67;83.50;100982.36;1747020;80;21030;-66
2021/01/23 00:53:13;;;;;;;30.30;17.75;;;;;;;4.64;83.47;100976.81;1750100;80;21242;-67
2021/01/23 00:55:42;;;;;;;23.10;16.07;;;;;;;4.63;83.45;100970.39;1752114;80;21069;-65
2021/01/23 00:58:12;;;;;;;28.85;16.57;;;;;;;4.61;83.46;100973.48;1727642;80;21495;-64
2021/01/23 01:00:42;;;;;;;27.73;19.00;;;;;;;4.59;83.68;100973.52;1752009;80;21029;-65
2021/01/23 01:03:11;;;;;;;29.07;16.40;;;;;;;4.56;83.75;100973.63;1752150;80;21097;-65
2021/01/23 01:05:43;;;;;;;22.93;15.08;;;;;;;4.56;83.85;100973.16;1751053;80;21356;-65
2021/01/23 01:08:13;;;;;;;25.68;17.50;;;;;;;4.56;83.92;100971.87;1752005;80;21033;-65
2021/01/23 01:10:48;;;;;;;32.67;17.73;;;;;;;4.57;83.98;100970.11;1752166;80;20990;-66
2021/01/23 01:13:18;;;;;;;26.45;17.25;;;;;;;4.56;83.93;100967.97;1751981;80;20970;-65
2021/01/23 01:15:48;;;;;;;22.13;15.68;;;;;;;4.58;83.99;100965.34;1752175;80;20978;-64
2021/01/23 01:18:18;;;;;;;27.15;17.82;;;;;;;4.59;84.04;100960.53;1752466;80;21402;-65
2021/01/23 01:20:48;;;;;;;25.23;16.40;;;;;;;4.59;84.10;100964.42;1752099;80;20986;-65
2021/01/23 01:23:18;;;;;;;23.27;15.90;;;;;;;4.60;84.22;100962.67;1751986;80;20959;-65
2021/01/23 01:25:47;;;;;;;28.92;16.80;;;;;;;4.61;84.24;100955.30;1752010;80;20958;-66
2021/01/23 01:28:17;;;;;;;27.00;16.37;;;;;;;4.62;84.32;100958.28;1752219;80;20914;-66
2021/01/23 01:30:47;;;;;;;23.12;16.27;;;;;;;4.64;84.34;100954.73;1752056;80;21228;-65
2021/01/23 01:33:17;;;;;;;30.48;16.52;;;;;;;4.66;84.35;100950.80;1751954;80;20926;-65
2021/01/23 01:35:47;;;;;;;25.30;15.85;;;;;;;4.68;84.32;100958.11;1752089;80;20954;-65
2021/01/23 01:38:15;;;;;;;22.17;16.37;;;;;;;4.68;84.34;100950.31;1752115;80;21001;-66
2021/01/23 01:40:44;;;;;;;25.40;15.95;;;;;;;4.68;84.37;100942.52;1752109;80;21017;-65
2021/01/23 01:43:14;;;;;;;20.95;15.53;;;;;;;4.68;84.46;100945.13;1752124;80;21152;-65
2021/01/23 01:45:43;;;;;;;23.12;16.07;;;;;;;4.67;84.47;100944.28;1780258;80;21017;-64
2021/01/23 01:48:14;;;;;;;23.98;14.73;;;;;;;4.66;84.44;100949.05;1752023;80;21026;-65
2021/01/23 01:50:44;;;;;;;20.85;13.48;;;;;;;4.67;84.44;100942.10;1728343;80;21010;-65
2021/01/23 01:53:18;;;;;;;23.47;14.20;;;;;;;4.67;84.38;100943.40;1752089;80;20978;-65
2021/01/23 01:55:45;;;;;;;26.80;15.85;;;;;;;4.65;84.39;100951.72;1752109;80;21230;-65
2021/01/23 01:58:17;;;;;;;22.30;13.55;;;;;;;4.65;84.42;100949.13;1752531;80;20993;-65
2021/01/23 02:00:48;;;;;;;21.62;14.35;;;;;;;4.66;84.46;100943.86;1753548;80;20942;-64
2021/01/23 02:04:12;;;;;;;26.07;16.65;;;;;;;4.69;84.42;100948.11;1755425;80;20962;-64
2021/01/23 02:06:50;;;;;;;20.17;13.68;;;;;;;4.70;84.34;100943.33;1753078;80;21074;-64
2021/01/23 02:09:49;;;;;;;20.77;13.93;;;;;;;4.71;84.16;100938.52;1752477;80;21098;-64
2021/01/23 02:12:51;;;;;;;26.85;16.23;;;;;;;4.70;84.11;100935.53;1751980;80;20954;-64
2021/01/23 02:15:22;;;;;;;21.95;16.12;;;;;;;4.70;84.07;100939.44;1752082;80;20955;-65
2021/01/23 02:17:58;;;;;;;20.32;14.63;;;;;;;4.71;84.02;100938.52;1751970;80;20962;-65
2021/01/23 02:20:59;;;;;;;23.75;16.40;;;;;;;4.72;83.87;100938.94;1751877;80;20955;-65
2021/01/23 02:23:30;;;;;;;25.25;15.30;;;;;;;4.70;83.80;100938.98;1752125;80;21165;-66
2021/01/23 02:26:25;;;;;;;22.73;14.47;;;;;;;4.69;83.71;100939.89;1752005;80;21056;-65
2021/01/23 02:29:24;;;;;;;20.48;13.98;;;;;;;4.69;83.67;100938.59;1752282;80;20974;-65
2021/01/23 02:31:57;;;;;;;30.12;15.32;;;;;;;4.68;83.65;100933.43;1752049;80;20946;-65
2021/01/23 02:34:28;;;;;;;21.37;15.83;;;;;;;4.68;83.59;100936.03;1752139;80;21468;-65
2021/01/23 02:36:59;;;;;;;25.82;15.28;;;;;;;4.68;83.52;100931.67;1752178;80;22512;-66
2021/01/23 02:39:28;;;;;;;22.32;13.20;;;;;;;4.68;83.39;100942.06;1752032;79;20914;-65
2021/01/23 02:41:57;;;;;;;19.27;12.05;;;;;;;4.67;83.26;100942.98;1752266;80;21108;-64
2021/01/23 02:44:27;;;;;;;16.52;12.28;;;;;;;4.67;83.20;100940.38;1752231;80;20947;-65
2021/01/23 02:46:57;;;;;;;21.35;12.18;;;;;;;4.65;83.24;100938.27;1752237;80;21081;-64
2021/01/23 02:49:26;;;;;;;22.20;14.95;;;;;;;4.66;83.33;100950.34;1752234;80;21096;-65
2021/01/23 02:52:26;;;;;;;18.87;13.95;;;;;;;4.66;83.36;100946.45;1752078;80;20970;-65
2021/01/23 02:55:07;;;;;;;28.35;16.87;;;;;;;4.66;83.40;100952.11;1752065;80;21061;-64
2021/01/23 02:57:38;;;;;;;34.18;19.32;;;;;;;4.65;83.32;100955.61;1752144;80;20943;-65
2021/01/23 03:00:10;;;;;;;22.52;12.80;;;;;;;4.67;83.19;100946.00;1752321;80;20958;-65
2021/01/23 03:02:53;;;;;;;20.68;13.00;;;;;;;4.67;83.13;100949.47;1752292;79;21147;-65
2021/01/23 03:05:24;;;;;;;19.32;11.88;;;;;;;4.68;83.11;100949.02;1752163;80;21053;-65
2021/01/23 03:07:54;;;;;;;22.25;12.50;;;;;;;4.68;83.04;100947.27;1752271;80;20943;-65
2021/01/23 03:10:40;;;;;;;28.67;13.45;;;;;;;4.67;83.05;100944.28;1780404;80;21419;-65
2021/01/23 03:13:10;;;;;;;21.12;11.43;;;;;;;4.66;83.00;100946.91;1752266;80;21096;-63
2021/01/23 03:15:42;;;;;;;21.17;11.78;;;;;;;4.64;82.91;100941.75;1752311;80;22100;-65
2021/01/23 03:18:12;;;;;;;23.07;13.08;;;;;;;4.64;82.79;100942.20;1752226;80;21111;-66
2021/01/23 03:20:42;;;;;;;20.48;12.50;;;;;;;4.62;82.71;100936.20;1752295;80;20990;-66
2021/01/23 03:23:11;;;;;;;20.25;13.18;;;;;;;4.59;82.73;100946.25;1752110;80;21069;-65
2021/01/23 03:25:41;;;;;;;15.50;11.53;;;;;;;4.60;82.69;100947.09;1752122;80;20967;-65
2021/01/23 03:28:11;;;;;;;17.75;12.40;;;;;;;4.59;82.65;100933.71;1752287;80;22103;-64
2021/01/23 03:30:41;;;;;;;21.25;12.03;;;;;;;4.57;82.56;100939.78;1752167;80;20970;-64
2021/01/23 03:33:11;;;;;;;16.70;11.55;;;;;;;4.55;82.49;100936.84;1752147;80;20995;-64
2021/01/23 03:35:41;;;;;;;17.05;11.05;;;;;;;4.56;82.39;100936.80;1752247;80;20906;-65
2021/01/23 03:38:10;;;;;;;19.80;11.90;;;;;;;4.56;82.30;100933.36;1752333;80;21526;-64
2021/01/23 03:40:41;;;;;;;22.90;11.90;;;;;;;4.55;82.30;100935.08;1752096;80;21176;-66
2021/01/23 03:43:10;;;;;;;17.10;10.95;;;;;;;4.54;82.32;100935.16;1752217;80;21372;-65
2021/01/23 03:45:40;;;;;;;17.20;10.95;;;;;;;4.53;82.39;100938.17;1752242;80;21650;-64
2021/01/23 03:48:10;;;;;;;21.45;13.50;;;;;;;4.54;82.34;100937.30;1752203;80;20958;-66
2021/01/23 03:50:38;;;;;;;19.40;11.88;;;;;;;4.57;82.26;100938.95;1780488;80;21344;-65
2021/01/23 03:53:08;;;;;;;17.00;11.68;;;;;;;4.57;82.29;100940.24;1750714;80;21172;-66
2021/01/23 03:55:37;;;;;;;19.52;12.07;;;;;;;4.58;82.29;100935.47;1747076;80;20927;-65
2021/01/23 03:58:06;;;;;;;14.10;10.25;;;;;;;4.57;82.27;100935.89;1746994;80;20915;-64
2021/01/23 04:00:36;;;;;;;20.23;11.53;;;;;;;4.59;82.24;100937.16;1747163;80;20970;-65
2021/01/23 04:03:07;;;;;;;18.48;12.18;;;;;;;4.59;82.14;100938.45;1747213;80;21495;-63
2021/01/23 04:05:36;;;;;;;13.62;10.82;;;;;;;4.61;81.96;100929.33;1747093;80;21148;-65
2021/01/23 04:08:06;;;;;;;17.20;10.30;;;;;;;4.63;81.86;100932.73;1747108;80;21014;-65
2021/01/23 04:10:36;;;;;;;11.05;9.35;;;;;;;4.62;81.81;100935.75;1747094;80;21013;-66
2021/01/23 04:13:06;;;;;;;15.18;9.83;;;;;;;4.63;81.74;100930.97;1775369;79;20903;-65
2021/01/23 04:15:36;;;;;;;13.88;10.00;;;;;;;4.62;81.73;100931.02;1747120;80;21026;-65
2021/01/23 04:18:05;;;;;;;14.98;10.30;;;;;;;4.64;81.64;100935.26;1747074;80;21101;-66
2021/01/23 04:20:35;;;;;;;12.03;9.63;;;;;;;4.63;81.53;100930.97;1746979;80;21025;-66
2021/01/23 04:23:04;;;;;;;13.68;8.85;;;;;;;4.65;81.43;100927.05;1747071;80;21019;-66
2021/01/23 04:25:33;;;;;;;12.53;9.38;;;;;;;4.66;81.38;100933.92;1747274;80;21006;-65
2021/01/23 04:28:04;;;;;;;10.55;9.28;;;;;;;4.65;81.33;100930.94;1747101;80;21026;-64
2021/01/23 04:30:33;;;;;;;12.85;10.05;;;;;;;4.65;81.32;100929.64;1747044;80;21242;-66
2021/01/23 04:33:04;;;;;;;12.25;10.88;;;;;;;4.62;81.33;100934.45;1747088;80;21503;-65
2021/01/23 04:35:34;;;;;;;14.20;11.22;;;;;;;4.64;81.32;100935.72;1747000;80;21139;-65
2021/01/23 04:38:04;;;;;;;12.63;10.28;;;;;;;4.64;81.33;100938.31;1747276;80;21082;-67
2021/01/23 04:40:34;;;;;;;13.22;9.35;;;;;;;4.68;81.20;100937.33;1747029;80;21006;-66
2021/01/23 04:43:03;;;;;;;11.88;8.88;;;;;;;4.69;81.12;100941.61;1747098;80;21173;-65
2021/01/23 04:45:32;;;;;;;14.10;9.05;;;;;;;4.68;81.10;100931.67;1747071;80;20990;-64
2021/01/23 04:48:01;;;;;;;12.37;9.15;;;;;;;4.69;81.10;100925.60;1747215;80;20942;-66
2021/01/23 04:50:31;;;;;;;17.57;10.78;;;;;;;4.70;81.06;100931.19;1747143;80;20955;-68
2021/01/23 04:53:00;;;;;;;15.75;9.10;;;;;;;4.71;80.97;100934.20;1747348;80;21077;-65
2021/01/23 04:55:30;;;;;;;13.68;9.93;;;;;;;4.72;80.83;100926.80;1752244;80;22496;-66
2021/01/23 04:58:00;;;;;;;13.40;9.25;;;;;;;4.74;80.73;100927.59;1752183;80;21117;-67
2021/01/23 05:00:29;;;;;;;13.98;9.40;;;;;;;4.76;80.60;100926.27;1752232;80;21349;-65
2021/01/23 05:03:02;;;;;;;9.00;8.05;;;;;;;4.74;80.60;100932.80;1752165;79;20971;-65
2021/01/23 05:05:33;;;;;;;13.53;8.18;;;;;;;4.72;80.63;100933.74;1752262;80;21649;-65
2021/01/23 05:08:14;;;;;;;9.15;8.23;;;;;;;4.70;80.62;100938.98;1752163;80;21146;-65
2021/01/23 05:10:45;;;;;;;13.58;8.85;;;;;;;4.71;80.55;100937.22;1778381;80;21385;-65
2021/01/23 05:13:16;;;;;;;10.05;8.23;;;;;;;4.68;80.52;100922.59;1704663;80;20986;-67
2021/01/23 05:15:45;;;;;;;14.40;8.75;;;;;;;4.68;80.44;100939.47;1752164;80;21041;-65
2021/01/23 05:18:15;;;;;;;12.15;7.40;;;;;;;4.68;80.42;100932.13;1752037;80;20982;-65
2021/01/23 05:20:51;;;;;;;12.25;7.35;;;;;;;4.67;80.48;100923.92;1752238;80;22046;-66
2021/01/23 05:23:23;;;;;;;10.72;7.95;;;;;;;4.68;80.52;100911.34;1752098;80;20985;-66
2021/01/23 05:25:54;;;;;;;14.90;9.50;;;;;;;4.69;80.47;100913.03;1752053;80;21033;-66
2021/01/23 05:28:33;;;;;;;13.18;10.10;;;;;;;4.68;80.36;100921.28;1752239;80;21009;-64
2021/01/23 05:31:04;;;;;;;14.07;10.65;;;;;;;4.67;80.34;100914.83;1752211;80;21030;-65
2021/01/23 05:33:35;;;;;;;14.13;9.30;;;;;;;4.66;80.33;100920.48;1778368;80;21376;-65
2021/01/23 05:36:09;;;;;;;12.93;9.30;;;;;;;4.66;80.38;100924.38;1751960;80;21571;-65
2021/01/23 05:38:44;;;;;;;15.65;9.35;;;;;;;4.66;80.46;100919.64;1752061;80;20899;-65
2021/01/23 05:41:14;;;;;;;13.40;8.90;;;;;;;4.65;80.60;100915.35;1752132;80;21097;-67
2021/01/23 05:43:49;;;;;;;15.48;8.85;;;;;;;4.66;80.71;100910.09;1752027;80;21037;-66
2021/01/23 05:46:31;;;;;;;10.53;8.20;;;;;;;4.69;80.73;100911.31;1752206;80;21221;-67
2021/01/23 05:49:01;;;;;;;11.00;8.50;;;;;;;4.73;80.60;100908.16;1751915;80;21057;-66
2021/01/23 05:51:31;;;;;;;13.72;8.78;;;;;;;4.77;80.48;100911.91;1752058;80;21022;-65
2021/01/23 05:54:00;;;;;;;12.82;8.43;;;;;;;4.79;80.35;100914.46;1749972;80;20950;-65
2021/01/23 05:56:30;;;;;;;13.93;9.85;;;;;;;4.79;80.33;100906.67;1747058;80;21496;-65
2021/01/23 05:59:00;;;;;;;16.10;11.70;;;;;;;4.79;80.34;100904.07;1747121;80;21170;-65
2021/01/23 06:01:30;;;;;;;13.78;10.25;;;;;;;4.78;80.25;100900.63;1746839;80;20978;-66
2021/01/23 06:03:59;;;;;;;17.37;10.03;;;;;;;4.78;80.33;100890.23;1747160;79;20992;-65
2021/01/23 06:06:45;;;;;;;16.57;10.20;;;;;;;4.79;80.36;100904.07;1746919;80;20915;-68
2021/01/23 06:09:40;;;;;;;15.08;10.48;;;;;;;4.81;80.45;100901.44;1746988;80;20986;-66
2021/01/23 06:12:34;;;;;;;16.55;10.28;;;;;;;4.82;80.47;100904.42;1775240;80;20919;-65
2021/01/23 06:15:29;;;;;;;14.65;9.60;;;;;;;4.83;80.40;100895.74;1747256;80;21006;-65
2021/01/23 06:18:01;;;;;;;15.25;9.73;;;;;;;4.85;80.27;100890.89;1740810;80;21400;-67
2021/01/23 06:20:47;;;;;;;16.35;10.13;;;;;;;4.89;80.09;100899.00;1775625;79;21525;-67
2021/01/23 06:23:22;;;;;;;11.83;8.13;;;;;;;4.93;79.97;100902.33;1747235;80;20986;-66
2021/01/23 06:25:55;;;;;;;16.60;8.90;;;;;;;4.95;79.77;100890.13;1775521;79;21472;-66
2021/01/23 06:28:32;;;;;;;19.48;9.25;;;;;;;4.95;79.76;100890.13;1746817;80;20974;-65
2021/01/23 06:31:31;;;;;;;23.73;10.95;;;;;;;4.95;79.69;100890.98;1747101;80;20966;-66
2021/01/23 06:34:00;;;;;;;18.95;11.48;;;;;;;4.97;79.66;100898.28;1658141;85;21131;-65
2021/01/23 06:36:30;;;;;;;16.70;9.65;;;;;;;4.99;79.55;100902.98;1626018;85;20998;-68
2021/01/23 06:39:05;;;;;;;15.72;9.70;;;;;;;5.01;79.35;100902.09;1658625;85;21006;-67
2021/01/23 06:41:36;;;;;;;15.90;9.05;;;;;;;5.01;79.28;100896.90;1626263;85;21086;-68
2021/01/23 06:44:11;;;;;;;13.28;8.83;;;;;;;4.99;79.34;100898.23;1658684;85;21446;-68
2021/01/23 06:46:41;;;;;;;13.85;8.98;;;;;;;4.98;79.34;100896.09;1626292;87;20970;-70
2021/01/23 06:49:11;;;;;;;14.30;9.10;;;;;;;5.01;79.39;100900.34;1658720;84;21061;-66
2021/01/23 06:51:44;;;;;;;15.00;9.05;;;;;;;5.04;79.25;100891.59;1626506;87;21482;-65
2021/01/23 06:54:19;;;;;;;15.15;8.58;;;;;;;5.06;79.15;100897.13;1660831;83;21089;-65
2021/01/23 06:56:52;;;;;;;16.87;9.08;;;;;;;5.06;79.08;100892.39;1665536;85;20989;-66
2021/01/23 06:59:46;;;;;;;;;;;;;;;;;;;;;
2021/01/23 07:02:19;;;;;;;16.15;8.15;;;;;;;5.11;79.06;100884.86;1847483;76;22315;-64
2021/01/23 07:04:50;;;;;;;16.67;9.73;;;;;;;5.06;79.13;100872.89;1762962;77;21165;-69
2021/01/23 07:07:19;;;;;;;16.52;9.30;;;;;;;5.05;79.19;100884.20;1786225;79;21056;-66
2021/01/23 07:09:55;;;;;;;19.42;13.43;;;;;;;5.08;79.13;100890.59;1786154;79;20998;-67
2021/01/23 07:12:43;;;;;;;25.72;11.30;;;;;;;5.13;79.05;100887.38;1786194;79;20930;-66
2021/01/23 07:15:14;;;;;;;16.85;8.95;;;;;;;5.16;78.92;100880.34;1786602;79;21508;-67
2021/01/23 07:17:44;;;;;;;15.35;10.28;;;;;;;5.19;78.86;100882.83;1786298;79;21368;-66
2021/01/23 07:20:16;;;;;;;17.75;11.43;;;;;;;5.19;78.89;100884.13;1786200;79;22395;-66
2021/01/23 07:22:46;;;;;;;16.23;11.70;;;;;;;5.22;78.82;100886.23;1786059;79;20962;-67
2021/01/23 07:25:17;;;;;;;16.55;9.30;;;;;;;5.22;78.73;100888.83;1786548;79;21431;-67
2021/01/23 07:27:46;;;;;;;23.83;10.08;;;;;;;5.24;78.66;100887.03;1786145;79;21017;-68
2021/01/23 07:30:19;;;;;;;14.78;8.83;;;;;;;5.26;78.56;100889.13;1736987;79;21010;-65
2021/01/23 07:32:49;;;;;;;14.85;9.05;;;;;;;5.29;78.46;100901.59;1786459;79;21236;-67
2021/01/23 07:35:22;;;;;;;16.93;10.88;;;;;;;5.26;78.56;100902.13;1786008;79;21067;-65
2021/01/23 07:37:51;;;;;;;16.45;11.18;;;;;;;5.26;78.65;100901.67;1785952;79;20970;-67
2021/01/23 07:40:23;;;;;;;18.42;11.48;;;;;;;5.26;78.75;100906.88;1786235;79;20943;-68
2021/01/23 07:42:56;;;;;;;20.17;11.03;;;;;;;5.25;78.81;100901.29;1786368;79;20959;-69
2021/01/23 07:45:24;;;;;;;26.80;12.73;;;;;;;5.28;78.89;100899.88;1786334;77;21065;-68
2021/01/23 07:48:05;;;;;;;16.35;10.35;;;;;;;5.29;78.97;100902.89;1786382;77;21014;-69
2021/01/23 07:50:43;;;;;;;25.43;13.43;;;;;;;5.31;79.12;100901.06;1768131;79;20943;-69
2021/01/23 07:53:22;;;;;;;20.15;10.85;;;;;;;5.32;79.25;100909.28;1786140;79;20946;-70
2021/01/23 07:55:51;;;;;;;22.73;13.32;;;;;;;5.32;79.38;100895.44;1786238;79;20951;-68
2021/01/23 07:58:20;;;;;;;26.60;11.85;;;;;;;5.33;79.47;100899.72;1786144;79;21472;-68
2021/01/23 08:00:48;;;;;;;16.97;10.70;;;;;;;5.35;79.56;100892.26;1788267;78;20974;-68
2021/01/23 08:03:17;;;;;;;18.52;10.88;;;;;;;5.41;79.60;100883.41;1796524;78;21053;-71
2021/01/23 08:05:51;;;;;;;26.07;11.57;;;;;;;5.49;79.63;100888.34;1796641;78;21348;-71
2021/01/23 08:08:34;;;;;;;21.37;11.60;;;;;;;5.54;79.64;100888.59;1796994;78;21483;-69
2021/01/23 08:11:06;;;;;;;23.77;14.15;;;;;;;5.61;79.56;100887.47;1796602;78;21615;-70
2021/01/23 08:13:35;;;;;;;22.45;14.20;;;;;;;5.70;79.50;100894.56;1796103;78;21629;-69
2021/01/23 08:16:13;;;;;;;20.52;11.78;;;;;;;5.75;79.30;100888.27;1796177;78;20943;-69
2021/01/23 08:18:44;;;;;;;20.40;11.65;;;;;;;5.85;79.15;100891.41;1796073;78;20927;-70
2021/01/23 08:21:18;;;;;;;26.68;12.75;;;;;;;5.92;79.01;100882.93;1823623;78;20910;-68
2021/01/23 08:23:47;;;;;;;25.37;13.93;;;;;;;5.96;79.07;100883.25;1796132;78;21021;-68
2021/01/23 08:26:18;;;;;;;21.65;12.70;;;;;;;6.03;79.12;100883.42;1795949;77;21013;-69
2021/01/23 08:28:49;;;;;;;24.72;13.50;;;;;;;6.09;79.11;100880.59;1796080;78;21053;-68
2021/01/23 08:31:24;;;;;;;23.02;14.70;;;;;;;6.15;79.07;100884.70;1796031;78;20966;-73
2021/01/23 08:33:55;;;;;;;26.25;14.58;;;;;;;6.21;79.08;100874.91;1796013;77;20974;-68
2021/01/23 08:36:29;;;;;;;29.37;16.42;;;;;;;6.27;79.04;100879.05;1796115;78;21381;-71
2021/01/23 08:39:03;;;;;;;20.90;13.40;;;;;;;6.30;79.00;100867.20;1795865;78;20994;-72
2021/01/23 08:41:33;;;;;;;32.33;17.35;;;;;;;6.32;79.01;100863.25;1796226;78;20923;-72
2021/01/23 08:44:03;;;;;;;31.87;17.92;;;;;;;6.28;79.16;100863.80;1795986;78;20954;-75
2021/01/23 08:46:35;;;;;;;30.45;17.25;;;;;;;6.29;79.33;100862.92;1824306;77;20998;-70
2021/01/23 08:49:05;;;;;;;33.55;16.62;;;;;;;6.30;79.39;100872.88;1796202;78;21574;-66
2021/01/23 08:51:35;;;;;;;26.48;15.35;;;;;;;6.29;79.51;100860.74;1796075;77;21053;-69
2021/01/23 08:54:05;;;;;;;24.80;15.13;;;;;;;6.28;79.65;100861.66;1796148;78;20931;-66
2021/01/23 08:56:33;;;;;;;25.45;15.43;;;;;;;6.27;79.77;100855.61;1795983;78;20938;-67
2021/01/23 08:59:03;;;;;;;27.90;16.85;;;;;;;6.28;79.90;100852.09;1796094;78;20926;-68
2021/01/23 09:01:32;;;;;;;26.02;16.60;;;;;;;6.31;79.96;100849.35;1791649;79;22450;-66
2021/01/23 09:04:01;;;;;;;28.85;15.70;;;;;;;6.33;80.03;100846.23;1785531;79;21515;-66
2021/01/23 09:06:30;;;;;;;25.52;15.23;;;;;;;6.37;80.03;100857.40;1785725;79;20931;-64
2021/01/23 09:08:59;;;;;;;23.40;14.03;;;;;;;6.41;80.05;100851.16;1785555;79;21021;-66
2021/01/23 09:11:28;;;;;;;34.80;17.30;;;;;;;6.47;80.01;100851.36;1785669;79;21017;-64
2021/01/23 09:13:57;;;;;;;25.62;16.77;;;;;;;6.49;80.04;100854.76;1785562;79;21147;-64
2021/01/23 09:16:27;;;;;;;33.02;19.98;;;;;;;6.50;80.05;100853.41;1785565;79;20974;-64
2021/01/23 09:19:00;;;;;;;29.37;16.12;;;;;;;6.51;80.07;100848.58;1785423;79;20994;-72
2021/01/23 09:21:30;;;;;;;27.20;16.73;;;;;;;6.51;80.10;100839.92;1786066;79;21376;-68
2021/01/23 09:23:59;;;;;;;27.40;15.35;;;;;;;6.51;80.10;100848.58;1785715;79;20990;-70
2021/01/23 09:26:28;;;;;;;35.98;17.35;;;;;;;6.50;80.13;100837.77;1785545;79;20958;-69
2021/01/23 09:28:57;;;;;;;35.52;18.42;;;;;;;6.49;80.20;100849.12;1785375;79;21001;-66
2021/01/23 09:31:25;;;;;;;28.07;19.20;;;;;;;6.48;80.28;100848.70;1785433;79;21025;-66
2021/01/23 09:33:55;;;;;;;24.95;14.63;;;;;;;6.47;80.37;100854.84;1785611;79;21107;-66
2021/01/23 09:36:25;;;;;;;31.00;16.10;;;;;;;6.49;80.45;100846.95;1785662;79;20935;-66
2021/01/23 09:38:55;;;;;;;26.20;15.40;;;;;;;6.50;80.47;100843.45;1785504;77;21160;-67
2021/01/23 09:41:25;;;;;;;31.33;17.60;;;;;;;6.50;80.54;100826.52;1785456;79;20911;-64
2021/01/23 09:47:04;;;;;;;30.97;17.52;;;;;;;6.53;80.61;100840.25;1760703;77;21123;-72
2021/01/23 09:49:33;;;;;;;32.40;17.73;;;;;;;6.53;80.69;100843.31;1734131;81;20917;-75
2021/01/23 09:52:03;;;;;;;32.67;18.17;;;;;;;6.51;80.74;100843.83;1734205;81;21670;-75
2021/01/23 09:54:34;;;;;;;27.80;15.80;;;;;;;6.50;80.77;100846.05;1734081;81;20973;-75
2021/01/23 09:57:03;;;;;;;36.50;18.48;;;;;;;6.48;80.87;100842.20;1734268;81;20965;-73
2021/01/23 09:59:33;;;;;;;33.70;16.82;;;;;;;6.45;81.01;100837.12;1734207;81;20918;-80
2021/01/23 10:02:01;;;;;;;29.92;17.67;;;;;;;6.48;81.15;100843.95;1734345;81;20996;-80
2021/01/23 10:04:31;;;;;;;33.18;17.87;;;;;;;6.48;81.23;100832.23;1734381;81;21984;-75
2021/01/23 10:07:00;;;;;;;29.80;17.30;;;;;;;6.50;81.34;100835.17;1734297;81;21497;-78
2021/01/23 10:10:13;;;;;;;33.08;17.57;;;;;;;6.56;81.25;100821.91;1844919;75;22488;-82
2021/01/23 10:12:44;;;;;;;30.15;17.67;;;;;;;6.56;81.28;100828.88;1856091;77;20922;-74
2021/01/23 10:15:15;;;;;;;29.12;16.93;;;;;;;6.55;81.37;100828.47;1850387;77;22157;-77
2021/01/23 10:17:44;;;;;;;34.83;20.12;;;;;;;6.54;81.50;100830.23;1822759;77;21009;-77
2021/01/23 10:20:12;;;;;;;32.58;19.27;;;;;;;6.55;81.62;100841.03;1752350;80;21028;-81
2021/01/23 10:22:43;;;;;;;37.63;20.95;;;;;;;6.56;81.67;100832.79;1757639;80;21445;-82
2021/01/23 10:25:14;;;;;;;34.15;19.55;;;;;;;6.57;81.67;100837.92;1789989;80;21376;-79
2021/01/23 10:27:45;;;;;;;32.78;19.45;;;;;;;6.58;81.64;100837.45;1753972;80;21240;-83
2021/01/23 10:30:15;;;;;;;33.23;17.77;;;;;;;6.62;81.59;100837.27;1754014;80;20934;-85
2021/01/23 10:32:44;;;;;;;28.67;17.23;;;;;;;6.64;81.50;100841.13;1786734;79;20926;-79
2021/01/23 10:35:14;;;;;;;29.90;17.73;;;;;;;6.66;81.56;100840.61;1786711;79;20949;-80
2021/01/23 10:37:48;;;;;;;30.10;15.50;;;;;;;6.69;81.49;100830.52;1781507;79;20970;-77
2021/01/23 10:40:17;;;;;;;35.00;18.60;;;;;;;6.68;81.51;100827.07;1781536;78;21256;-78
2021/01/23 10:42:48;;;;;;;31.87;16.95;;;;;;;6.67;81.56;100825.81;1781518;79;20970;-76
2021/01/23 10:45:16;;;;;;;30.85;18.15;;;;;;;6.68;81.55;100823.63;1781505;79;20934;-75
2021/01/23 10:47:45;;;;;;;32.00;16.73;;;;;;;6.68;81.53;100827.07;1786362;79;20946;-75
2021/01/23 10:50:15;;;;;;;37.17;20.15;;;;;;;6.67;81.54;100818.00;1781565;79;20907;-76
2021/01/23 10:52:46;;;;;;;36.17;20.30;;;;;;;6.67;81.64;100824.52;1781344;78;21253;-77
2021/01/23 10:55:17;;;;;;;37.98;18.70;;;;;;;6.68;81.68;100810.59;1786454;79;20935;-81
2021/01/23 10:57:46;;;;;;;41.37;20.10;;;;;;;6.70;81.67;100812.69;1781397;79;20946;-85
2021/01/23 11:00:16;;;;;;;32.58;19.85;;;;;;;6.70;81.61;100805.70;1781580;79;20939;-82
2021/01/23 11:02:45;;;;;;;38.17;19.37;;;;;;;6.70;81.55;100812.22;1786649;79;20946;-80
2021/01/23 11:05:15;;;;;;;35.35;19.52;;;;;;;6.72;81.52;100804.34;1786423;79;21642;-82
2021/01/23 11:07:45;;;;;;;33.42;18.05;;;;;;;6.75;81.45;100802.91;1784519;79;20950;-79
2021/01/23 11:10:16;;;;;;;25.88;16.73;;;;;;;6.75;81.48;100802.45;1805377;78;20931;-80
2021/01/23 11:12:45;;;;;;;27.27;16.32;;;;;;;6.77;81.53;100798.48;1776711;79;20947;-91
2021/01/23 11:15:16;;;;;;;29.80;17.80;;;;;;;6.77;81.55;100800.63;1781934;79;20958;-83
2021/01/23 11:17:45;;;;;;;36.05;18.07;;;;;;;6.76;81.58;100796.34;1804734;79;21180;-86
2021/01/23 11:20:14;;;;;;;29.35;18.23;;;;;;;6.80;81.51;100793.13;1781283;79;20963;-86
2021/01/23 11:22:44;;;;;;;31.75;18.98;;;;;;;6.80;81.53;100791.40;1776804;79;20959;-90
2021/01/23 11:25:15;;;;;;;41.18;19.87;;;;;;;6.80;81.56;100791.40;1776569;79;21023;-85
2021/01/23 11:27:45;;;;;;;33.88;19.12;;;;;;;6.81;81.60;100794.38;1782339;79;20943;-88
2021/01/23 11:30:36;;;;;;;27.00;17.62;;;;;;;6.84;81.64;100802.06;1777809;79;21122;-91
2021/01/23 11:33:41;;;;;;;33.33;19.10;;;;;;;6.85;81.58;100801.62;1719326;82;21022;-84
2021/01/23 11:37:13;;;;;;;29.98;17.27;;;;;;;6.88;81.56;100796.74;1796675;79;27524;-85
2021/01/23 11:39:46;;;;;;;31.37;17.23;;;;;;;6.84;81.56;100798.61;1740866;81;20999;-83
2021/01/23 11:42:20;;;;;;;22.52;15.72;;;;;;;6.83;81.62;100799.54;1742670;81;21182;-85
2021/01/23 11:44:53;;;;;;;25.30;15.40;;;;;;;6.82;81.79;100799.97;1738709;80;21395;-82
2021/01/23 11:47:28;;;;;;;27.77;18.92;;;;;;;6.81;81.92;100807.41;1744200;81;21073;-80